sensor_id;sensor_type;location;lat;lon;timestamp;temperature;humidity
569;DHT22;269;48.884;9.192;2022-07-21T00:02:11;20.20;99.90
569;DHT22;269;48.884;9.192;2022-07-21T00:04:38;20.20;99.90
569;DHT22;269;48.884;9.192;2022-07-21T00:07:05;20.10;99.90
569;DHT22;269;48.884;9.192;2022-07-21T00:09:32;20.20;99.90
569;DHT22;269;48.884;9.192;2022-07-21T00:12:02;20.20;99.90
569;DHT22;269;48.884;9.192;2022-07-21T00:14:29;20.30;99.90
569;DHT22;269;48.884;9.192;2022-07-21T00:16:57;20.30;99.90
569;DHT22;269;48.884;9.192;2022-07-21T00:19:24;20.30;99.90
569;DHT22;269;48.884;9.192;2022-07-21T00:21:51;20.30;99.90
569;DHT22;269;48.884;9.192;2022-07-21T00:24:18;20.30;99.90
569;DHT22;269;48.884;9.192;2022-07-21T00:26:45;20.30;99.90
569;DHT22;269;48.884;9.192;2022-07-21T00:29:14;20.40;99.90
569;DHT22;269;48.884;9.192;2022-07-21T00:31:41;20.40;99.90
569;DHT22;269;48.884;9.192;2022-07-21T00:34:08;20.40;99.90
569;DHT22;269;48.884;9.192;2022-07-21T00:36:35;20.30;99.90
569;DHT22;269;48.884;9.192;2022-07-21T00:39:02;20.40;99.90
569;DHT22;269;48.884;9.192;2022-07-21T00:41:29;20.30;99.90
569;DHT22;269;48.884;9.192;2022-07-21T00:43:56;20.20;99.90
569;DHT22;269;48.884;9.192;2022-07-21T00:46:24;20.20;99.90
569;DHT22;269;48.884;9.192;2022-07-21T00:48:51;20.20;99.90
569;DHT22;269;48.884;9.192;2022-07-21T00:51:18;20.10;99.90
569;DHT22;269;48.884;9.192;2022-07-21T00:53:45;20.10;99.90
569;DHT22;269;48.884;9.192;2022-07-21T00:56:12;20.10;99.90
569;DHT22;269;48.884;9.192;2022-07-21T00:58:40;20.20;99.90
569;DHT22;269;48.884;9.192;2022-07-21T01:01:07;20.20;99.90
569;DHT22;269;48.884;9.192;2022-07-21T01:03:35;20.30;99.90
569;DHT22;269;48.884;9.192;2022-07-21T01:06:03;20.30;99.90
569;DHT22;269;48.884;9.192;2022-07-21T01:08:31;20.40;99.90
569;DHT22;269;48.884;9.192;2022-07-21T01:10:58;20.50;99.90
569;DHT22;269;48.884;9.192;2022-07-21T01:13:25;20.50;99.90
569;DHT22;269;48.884;9.192;2022-07-21T01:15:52;20.60;99.90
569;DHT22;269;48.884;9.192;2022-07-21T01:18:19;20.50;99.90
569;DHT22;269;48.884;9.192;2022-07-21T01:20:51;20.50;99.90
569;DHT22;269;48.884;9.192;2022-07-21T01:23:21;20.60;99.90
569;DHT22;269;48.884;9.192;2022-07-21T01:25:48;20.60;99.90
569;DHT22;269;48.884;9.192;2022-07-21T01:28:16;20.60;99.90
569;DHT22;269;48.884;9.192;2022-07-21T01:30:43;20.60;99.90
569;DHT22;269;48.884;9.192;2022-07-21T01:33:10;20.50;99.90
569;DHT22;269;48.884;9.192;2022-07-21T01:35:37;20.50;99.90
569;DHT22;269;48.884;9.192;2022-07-21T01:38:05;20.50;99.90
569;DHT22;269;48.884;9.192;2022-07-21T01:40:57;20.50;99.90
569;DHT22;269;48.884;9.192;2022-07-21T01:43:42;20.40;99.90
569;DHT22;269;48.884;9.192;2022-07-21T01:46:11;20.30;99.90
569;DHT22;269;48.884;9.192;2022-07-21T01:48:41;20.30;99.90
569;DHT22;269;48.884;9.192;2022-07-21T01:51:08;20.20;99.90
569;DHT22;269;48.884;9.192;2022-07-21T01:53:35;20.10;99.90
569;DHT22;269;48.884;9.192;2022-07-21T01:56:05;20.00;99.90
569;DHT22;269;48.884;9.192;2022-07-21T01:58:33;19.90;99.90
569;DHT22;269;48.884;9.192;2022-07-21T02:01:00;19.80;99.90
569;DHT22;269;48.884;9.192;2022-07-21T02:03:27;19.80;99.90
569;DHT22;269;48.884;9.192;2022-07-21T02:06:00;19.80;99.90
569;DHT22;269;48.884;9.192;2022-07-21T02:08:27;19.80;99.90
569;DHT22;269;48.884;9.192;2022-07-21T02:10:55;19.80;99.90
569;DHT22;269;48.884;9.192;2022-07-21T02:13:23;19.80;99.90
569;DHT22;269;48.884;9.192;2022-07-21T02:15:50;19.70;99.90
569;DHT22;269;48.884;9.192;2022-07-21T02:18:18;19.60;99.90
569;DHT22;269;48.884;9.192;2022-07-21T02:20:45;19.60;99.90
569;DHT22;269;48.884;9.192;2022-07-21T02:23:14;19.50;99.90
569;DHT22;269;48.884;9.192;2022-07-21T02:25:41;19.50;99.90
569;DHT22;269;48.884;9.192;2022-07-21T02:28:09;19.50;99.90
569;DHT22;269;48.884;9.192;2022-07-21T02:30:38;19.40;99.90
569;DHT22;269;48.884;9.192;2022-07-21T02:33:05;19.40;99.90
569;DHT22;269;48.884;9.192;2022-07-21T02:35:33;19.30;99.90
569;DHT22;269;48.884;9.192;2022-07-21T02:38:00;19.30;99.90
569;DHT22;269;48.884;9.192;2022-07-21T02:40:27;19.40;99.90
569;DHT22;269;48.884;9.192;2022-07-21T02:42:55;19.40;99.90
569;DHT22;269;48.884;9.192;2022-07-21T02:45:22;19.40;99.90
569;DHT22;269;48.884;9.192;2022-07-21T02:47:53;19.50;99.90
569;DHT22;269;48.884;9.192;2022-07-21T02:50:21;19.50;99.90
569;DHT22;269;48.884;9.192;2022-07-21T02:52:49;19.50;99.90
569;DHT22;269;48.884;9.192;2022-07-21T02:55:16;19.50;99.90
569;DHT22;269;48.884;9.192;2022-07-21T02:57:43;19.50;99.90
569;DHT22;269;48.884;9.192;2022-07-21T03:00:11;19.50;99.90
569;DHT22;269;48.884;9.192;2022-07-21T03:02:38;19.50;99.90
569;DHT22;269;48.884;9.192;2022-07-21T03:05:07;19.50;99.90
569;DHT22;269;48.884;9.192;2022-07-21T03:07:35;19.50;99.90
569;DHT22;269;48.884;9.192;2022-07-21T03:10:02;19.50;99.90
569;DHT22;269;48.884;9.192;2022-07-21T03:12:30;19.50;99.90
569;DHT22;269;48.884;9.192;2022-07-21T03:14:58;19.50;99.90
569;DHT22;269;48.884;9.192;2022-07-21T03:17:25;19.60;99.90
569;DHT22;269;48.884;9.192;2022-07-21T03:19:52;19.70;99.90
569;DHT22;269;48.884;9.192;2022-07-21T03:22:20;19.80;99.90
569;DHT22;269;48.884;9.192;2022-07-21T03:24:47;19.80;99.90
569;DHT22;269;48.884;9.192;2022-07-21T03:27:17;19.90;99.90
569;DHT22;269;48.884;9.192;2022-07-21T03:29:44;19.90;99.90
569;DHT22;269;48.884;9.192;2022-07-21T03:32:11;20.00;99.90
569;DHT22;269;48.884;9.192;2022-07-21T03:34:38;20.00;99.90
569;DHT22;269;48.884;9.192;2022-07-21T03:37:05;20.00;99.90
569;DHT22;269;48.884;9.192;2022-07-21T03:39:34;20.00;99.90
569;DHT22;269;48.884;9.192;2022-07-21T03:42:01;20.00;99.90
569;DHT22;269;48.884;9.192;2022-07-21T03:44:28;19.90;99.90
569;DHT22;269;48.884;9.192;2022-07-21T03:46:55;19.90;99.90
569;DHT22;269;48.884;9.192;2022-07-21T03:49:24;19.90;99.90
569;DHT22;269;48.884;9.192;2022-07-21T03:51:51;19.90;99.90
569;DHT22;269;48.884;9.192;2022-07-21T03:54:18;19.90;99.90
569;DHT22;269;48.884;9.192;2022-07-21T03:56:47;19.90;99.90
569;DHT22;269;48.884;9.192;2022-07-21T03:59:14;19.90;99.90
569;DHT22;269;48.884;9.192;2022-07-21T04:01:41;20.00;99.90
569;DHT22;269;48.884;9.192;2022-07-21T04:04:08;20.00;99.90
569;DHT22;269;48.884;9.192;2022-07-21T04:06:35;20.00;99.90
569;DHT22;269;48.884;9.192;2022-07-21T04:09:03;20.10;99.90
569;DHT22;269;48.884;9.192;2022-07-21T04:11:30;20.20;99.90
569;DHT22;269;48.884;9.192;2022-07-21T04:13:59;20.20;99.90
569;DHT22;269;48.884;9.192;2022-07-21T04:16:26;20.30;99.90
569;DHT22;269;48.884;9.192;2022-07-21T04:18:53;20.30;99.90
569;DHT22;269;48.884;9.192;2022-07-21T04:21:20;20.30;99.90
569;DHT22;269;48.884;9.192;2022-07-21T04:23:47;20.30;99.90
569;DHT22;269;48.884;9.192;2022-07-21T04:26:14;20.40;99.90
569;DHT22;269;48.884;9.192;2022-07-21T04:28:42;20.40;99.90
569;DHT22;269;48.884;9.192;2022-07-21T04:31:10;20.40;99.90
569;DHT22;269;48.884;9.192;2022-07-21T04:33:37;20.40;99.90
569;DHT22;269;48.884;9.192;2022-07-21T04:36:04;20.40;99.90
569;DHT22;269;48.884;9.192;2022-07-21T04:38:31;20.40;99.90
569;DHT22;269;48.884;9.192;2022-07-21T04:40:58;20.30;99.90
569;DHT22;269;48.884;9.192;2022-07-21T04:43:25;20.30;99.90
569;DHT22;269;48.884;9.192;2022-07-21T04:45:52;20.30;99.90
569;DHT22;269;48.884;9.192;2022-07-21T04:48:21;20.20;99.90
569;DHT22;269;48.884;9.192;2022-07-21T04:50:48;20.30;99.90
569;DHT22;269;48.884;9.192;2022-07-21T04:53:15;20.30;99.90
569;DHT22;269;48.884;9.192;2022-07-21T04:55:42;20.20;99.90
569;DHT22;269;48.884;9.192;2022-07-21T04:58:09;20.20;99.90
569;DHT22;269;48.884;9.192;2022-07-21T05:00:36;20.30;99.90
569;DHT22;269;48.884;9.192;2022-07-21T05:03:03;20.30;99.90
569;DHT22;269;48.884;9.192;2022-07-21T05:05:35;20.30;99.90
569;DHT22;269;48.884;9.192;2022-07-21T05:08:02;20.30;99.90
569;DHT22;269;48.884;9.192;2022-07-21T05:10:29;20.40;99.90
569;DHT22;269;48.884;9.192;2022-07-21T05:12:56;20.50;99.90
569;DHT22;269;48.884;9.192;2022-07-21T05:15:23;20.50;99.90
569;DHT22;269;48.884;9.192;2022-07-21T05:17:50;20.50;99.90
569;DHT22;269;48.884;9.192;2022-07-21T05:20:17;20.50;99.90
569;DHT22;269;48.884;9.192;2022-07-21T05:22:45;20.60;99.90
569;DHT22;269;48.884;9.192;2022-07-21T05:25:12;20.60;99.90
569;DHT22;269;48.884;9.192;2022-07-21T05:27:40;20.70;99.90
569;DHT22;269;48.884;9.192;2022-07-21T05:30:08;20.80;99.90
569;DHT22;269;48.884;9.192;2022-07-21T05:32:35;20.90;99.90
569;DHT22;269;48.884;9.192;2022-07-21T05:35:03;20.90;99.90
569;DHT22;269;48.884;9.192;2022-07-21T05:37:34;21.00;99.90
569;DHT22;269;48.884;9.192;2022-07-21T05:40:02;21.10;99.90
569;DHT22;269;48.884;9.192;2022-07-21T05:42:30;21.20;99.90
569;DHT22;269;48.884;9.192;2022-07-21T05:44:57;21.20;99.90
569;DHT22;269;48.884;9.192;2022-07-21T05:47:24;21.20;99.90
569;DHT22;269;48.884;9.192;2022-07-21T05:49:51;21.20;99.90
569;DHT22;269;48.884;9.192;2022-07-21T05:52:18;21.20;99.90
569;DHT22;269;48.884;9.192;2022-07-21T05:54:45;21.40;99.90
569;DHT22;269;48.884;9.192;2022-07-21T05:57:13;21.50;99.90
569;DHT22;269;48.884;9.192;2022-07-21T05:59:40;21.50;99.90
569;DHT22;269;48.884;9.192;2022-07-21T06:02:08;21.60;99.90
569;DHT22;269;48.884;9.192;2022-07-21T06:04:35;21.70;99.90
569;DHT22;269;48.884;9.192;2022-07-21T06:07:02;21.80;99.90
569;DHT22;269;48.884;9.192;2022-07-21T06:09:29;21.80;99.90
569;DHT22;269;48.884;9.192;2022-07-21T06:11:56;21.80;99.90
569;DHT22;269;48.884;9.192;2022-07-21T06:14:25;21.80;99.90
569;DHT22;269;48.884;9.192;2022-07-21T06:16:52;21.90;99.90
569;DHT22;269;48.884;9.192;2022-07-21T06:19:19;22.00;99.90
569;DHT22;269;48.884;9.192;2022-07-21T06:21:46;21.90;99.90
569;DHT22;269;48.884;9.192;2022-07-21T06:24:13;21.90;99.90
569;DHT22;269;48.884;9.192;2022-07-21T06:26:40;21.90;99.90
569;DHT22;269;48.884;9.192;2022-07-21T06:29:07;22.00;99.90
569;DHT22;269;48.884;9.192;2022-07-21T06:31:37;22.00;99.90
569;DHT22;269;48.884;9.192;2022-07-21T06:34:04;21.90;99.90
569;DHT22;269;48.884;9.192;2022-07-21T06:36:32;21.90;99.90
569;DHT22;269;48.884;9.192;2022-07-21T06:38:59;21.80;99.90
569;DHT22;269;48.884;9.192;2022-07-21T06:41:26;21.90;99.90
569;DHT22;269;48.884;9.192;2022-07-21T06:43:53;21.80;99.90
569;DHT22;269;48.884;9.192;2022-07-21T06:46:20;22.00;99.90
569;DHT22;269;48.884;9.192;2022-07-21T06:48:49;22.10;99.90
569;DHT22;269;48.884;9.192;2022-07-21T06:51:16;22.20;99.90
569;DHT22;269;48.884;9.192;2022-07-21T06:53:43;22.20;99.90
569;DHT22;269;48.884;9.192;2022-07-21T06:56:10;22.20;99.90
569;DHT22;269;48.884;9.192;2022-07-21T06:58:37;22.30;99.90
569;DHT22;269;48.884;9.192;2022-07-21T07:01:04;22.40;99.90
569;DHT22;269;48.884;9.192;2022-07-21T07:03:32;22.50;99.90
569;DHT22;269;48.884;9.192;2022-07-21T07:06:00;22.60;99.90
569;DHT22;269;48.884;9.192;2022-07-21T07:08:28;22.60;99.90
569;DHT22;269;48.884;9.192;2022-07-21T07:10:55;22.60;99.90
569;DHT22;269;48.884;9.192;2022-07-21T07:13:22;22.60;99.90
569;DHT22;269;48.884;9.192;2022-07-21T07:15:49;22.60;99.90
569;DHT22;269;48.884;9.192;2022-07-21T07:18:16;22.60;99.90
569;DHT22;269;48.884;9.192;2022-07-21T07:20:46;22.50;99.90
569;DHT22;269;48.884;9.192;2022-07-21T07:23:14;22.60;99.90
569;DHT22;269;48.884;9.192;2022-07-21T07:25:41;22.70;99.90
569;DHT22;269;48.884;9.192;2022-07-21T07:28:08;23.10;99.90
569;DHT22;269;48.884;9.192;2022-07-21T07:30:36;23.50;99.90
569;DHT22;269;48.884;9.192;2022-07-21T07:33:03;23.80;99.90
569;DHT22;269;48.884;9.192;2022-07-21T07:35:30;23.80;99.90
569;DHT22;269;48.884;9.192;2022-07-21T07:37:57;24.30;99.90
569;DHT22;269;48.884;9.192;2022-07-21T07:40:26;25.00;99.90
569;DHT22;269;48.884;9.192;2022-07-21T07:42:53;25.40;99.90
569;DHT22;269;48.884;9.192;2022-07-21T07:45:20;25.60;99.90
569;DHT22;269;48.884;9.192;2022-07-21T07:47:47;26.20;99.90
569;DHT22;269;48.884;9.192;2022-07-21T07:50:15;26.60;99.90
569;DHT22;269;48.884;9.192;2022-07-21T07:52:43;26.80;99.90
569;DHT22;269;48.884;9.192;2022-07-21T07:55:11;27.20;99.90
569;DHT22;269;48.884;9.192;2022-07-21T07:57:43;27.80;99.90
569;DHT22;269;48.884;9.192;2022-07-21T08:00:12;28.10;99.90
569;DHT22;269;48.884;9.192;2022-07-21T08:02:40;28.20;99.90
569;DHT22;269;48.884;9.192;2022-07-21T08:05:07;27.60;99.90
569;DHT22;269;48.884;9.192;2022-07-21T08:07:37;27.20;99.90
569;DHT22;269;48.884;9.192;2022-07-21T08:10:05;27.10;99.90
569;DHT22;269;48.884;9.192;2022-07-21T08:12:32;26.60;99.90
569;DHT22;269;48.884;9.192;2022-07-21T08:15:01;26.60;99.90
569;DHT22;269;48.884;9.192;2022-07-21T08:17:28;26.80;99.90
569;DHT22;269;48.884;9.192;2022-07-21T08:19:55;27.60;99.90
569;DHT22;269;48.884;9.192;2022-07-21T08:22:22;28.60;99.90
569;DHT22;269;48.884;9.192;2022-07-21T08:24:50;29.50;99.90
569;DHT22;269;48.884;9.192;2022-07-21T08:27:17;29.80;99.90
569;DHT22;269;48.884;9.192;2022-07-21T08:29:45;29.90;99.90
569;DHT22;269;48.884;9.192;2022-07-21T08:32:13;30.60;99.40
569;DHT22;269;48.884;9.192;2022-07-21T08:34:40;31.00;98.10
569;DHT22;269;48.884;9.192;2022-07-21T08:37:07;31.20;98.00
569;DHT22;269;48.884;9.192;2022-07-21T08:39:34;31.10;97.60
569;DHT22;269;48.884;9.192;2022-07-21T08:42:02;30.80;97.40
569;DHT22;269;48.884;9.192;2022-07-21T08:44:29;30.70;96.20
569;DHT22;269;48.884;9.192;2022-07-21T08:46:57;30.50;95.80
569;DHT22;269;48.884;9.192;2022-07-21T08:49:26;30.70;96.00
569;DHT22;269;48.884;9.192;2022-07-21T08:51:54;30.00;94.80
569;DHT22;269;48.884;9.192;2022-07-21T08:54:22;29.50;95.80
569;DHT22;269;48.884;9.192;2022-07-21T08:56:49;29.40;96.00
569;DHT22;269;48.884;9.192;2022-07-21T08:59:17;29.20;97.00
569;DHT22;269;48.884;9.192;2022-07-21T09:01:44;29.60;95.60
569;DHT22;269;48.884;9.192;2022-07-21T09:04:22;29.60;96.20
569;DHT22;269;48.884;9.192;2022-07-21T09:06:53;30.10;95.60
569;DHT22;269;48.884;9.192;2022-07-21T09:09:21;30.10;94.40
569;DHT22;269;48.884;9.192;2022-07-21T09:11:48;29.90;94.70
569;DHT22;269;48.884;9.192;2022-07-21T09:14:16;29.90;95.00
569;DHT22;269;48.884;9.192;2022-07-21T09:16:46;30.30;95.50
569;DHT22;269;48.884;9.192;2022-07-21T09:19:18;30.80;94.70
569;DHT22;269;48.884;9.192;2022-07-21T09:21:46;31.20;92.70
569;DHT22;269;48.884;9.192;2022-07-21T09:24:17;31.40;91.00
569;DHT22;269;48.884;9.192;2022-07-21T09:27:06;31.20;92.20
569;DHT22;269;48.884;9.192;2022-07-21T09:29:42;31.60;90.40
569;DHT22;269;48.884;9.192;2022-07-21T09:32:15;31.70;89.30
569;DHT22;269;48.884;9.192;2022-07-21T09:34:42;31.10;90.20
569;DHT22;269;48.884;9.192;2022-07-21T09:37:10;30.90;90.90
569;DHT22;269;48.884;9.192;2022-07-21T09:39:43;31.60;91.20
569;DHT22;269;48.884;9.192;2022-07-21T09:42:22;32.40;90.40
569;DHT22;269;48.884;9.192;2022-07-21T09:44:52;33.20;86.10
569;DHT22;269;48.884;9.192;2022-07-21T09:47:22;33.20;85.20
569;DHT22;269;48.884;9.192;2022-07-21T09:49:50;34.20;85.70
569;DHT22;269;48.884;9.192;2022-07-21T09:52:23;34.70;83.20
569;DHT22;269;48.884;9.192;2022-07-21T09:54:53;35.20;80.50
569;DHT22;269;48.884;9.192;2022-07-21T09:57:21;34.80;81.70
569;DHT22;269;48.884;9.192;2022-07-21T09:59:49;34.40;79.60
569;DHT22;269;48.884;9.192;2022-07-21T10:02:19;33.80;80.00
569;DHT22;269;48.884;9.192;2022-07-21T10:04:51;33.00;81.70
569;DHT22;269;48.884;9.192;2022-07-21T10:07:21;32.10;84.80
569;DHT22;269;48.884;9.192;2022-07-21T10:09:48;31.50;86.10
569;DHT22;269;48.884;9.192;2022-07-21T10:12:17;30.80;87.40
569;DHT22;269;48.884;9.192;2022-07-21T10:14:44;30.00;89.60
569;DHT22;269;48.884;9.192;2022-07-21T10:17:13;29.30;90.40
569;DHT22;269;48.884;9.192;2022-07-21T10:19:48;28.70;91.20
569;DHT22;269;48.884;9.192;2022-07-21T10:22:25;28.30;92.30
569;DHT22;269;48.884;9.192;2022-07-21T10:24:56;28.00;92.70
569;DHT22;269;48.884;9.192;2022-07-21T10:27:25;28.00;93.70
569;DHT22;269;48.884;9.192;2022-07-21T10:30:00;28.70;93.00
569;DHT22;269;48.884;9.192;2022-07-21T10:32:30;30.00;91.70
569;DHT22;269;48.884;9.192;2022-07-21T10:34:58;31.60;90.00
569;DHT22;269;48.884;9.192;2022-07-21T10:37:48;32.80;86.80
569;DHT22;269;48.884;9.192;2022-07-21T10:40:38;33.90;80.20
569;DHT22;269;48.884;9.192;2022-07-21T10:43:36;34.60;74.50
569;DHT22;269;48.884;9.192;2022-07-21T10:46:35;34.80;75.70
569;DHT22;269;48.884;9.192;2022-07-21T10:49:04;34.80;74.80
569;DHT22;269;48.884;9.192;2022-07-21T10:51:36;35.30;74.20
569;DHT22;269;48.884;9.192;2022-07-21T10:54:23;35.20;66.90
569;DHT22;269;48.884;9.192;2022-07-21T10:57:26;34.50;71.10
569;DHT22;269;48.884;9.192;2022-07-21T11:00:17;33.80;69.90
569;DHT22;269;48.884;9.192;2022-07-21T11:02:47;33.80;72.50
569;DHT22;269;48.884;9.192;2022-07-21T11:05:14;33.50;70.90
569;DHT22;269;48.884;9.192;2022-07-21T11:08:10;32.70;73.70
569;DHT22;269;48.884;9.192;2022-07-21T11:10:39;32.10;76.70
569;DHT22;269;48.884;9.192;2022-07-21T11:13:09;31.70;78.10
569;DHT22;269;48.884;9.192;2022-07-21T11:15:54;31.90;76.20
569;DHT22;269;48.884;9.192;2022-07-21T11:18:24;32.10;76.20
569;DHT22;269;48.884;9.192;2022-07-21T11:21:12;32.40;74.10
569;DHT22;269;48.884;9.192;2022-07-21T11:23:44;33.00;73.10
569;DHT22;269;48.884;9.192;2022-07-21T11:26:13;32.40;72.00
569;DHT22;269;48.884;9.192;2022-07-21T11:28:41;32.20;74.30
569;DHT22;269;48.884;9.192;2022-07-21T11:31:13;32.70;72.30
569;DHT22;269;48.884;9.192;2022-07-21T11:33:44;33.40;70.40
569;DHT22;269;48.884;9.192;2022-07-21T11:36:23;33.50;67.90
569;DHT22;269;48.884;9.192;2022-07-21T11:39:03;33.20;70.20
569;DHT22;269;48.884;9.192;2022-07-21T11:41:30;33.90;70.00
569;DHT22;269;48.884;9.192;2022-07-21T11:43:57;34.40;68.30
569;DHT22;269;48.884;9.192;2022-07-21T11:46:26;34.80;66.60
569;DHT22;269;48.884;9.192;2022-07-21T11:49:01;35.00;64.30
569;DHT22;269;48.884;9.192;2022-07-21T11:51:28;34.50;64.50
569;DHT22;269;48.884;9.192;2022-07-21T11:53:55;33.80;66.50
569;DHT22;269;48.884;9.192;2022-07-21T11:56:23;33.50;67.00
569;DHT22;269;48.884;9.192;2022-07-21T11:58:50;33.00;67.80
569;DHT22;269;48.884;9.192;2022-07-21T12:01:53;32.50;69.10
569;DHT22;269;48.884;9.192;2022-07-21T12:04:41;31.90;70.00
569;DHT22;269;48.884;9.192;2022-07-21T12:07:15;31.70;70.10
569;DHT22;269;48.884;9.192;2022-07-21T12:09:44;31.20;71.80
569;DHT22;269;48.884;9.192;2022-07-21T12:12:12;30.70;73.10
569;DHT22;269;48.884;9.192;2022-07-21T12:14:41;30.60;74.90
569;DHT22;269;48.884;9.192;2022-07-21T12:17:10;30.60;74.90
569;DHT22;269;48.884;9.192;2022-07-21T12:19:37;30.80;75.60
569;DHT22;269;48.884;9.192;2022-07-21T12:22:04;31.40;74.70
569;DHT22;269;48.884;9.192;2022-07-21T12:24:49;32.10;73.50
569;DHT22;269;48.884;9.192;2022-07-21T12:27:18;32.40;72.20
569;DHT22;269;48.884;9.192;2022-07-21T12:29:45;32.60;71.20
569;DHT22;269;48.884;9.192;2022-07-21T12:32:15;32.30;72.00
569;DHT22;269;48.884;9.192;2022-07-21T12:35:03;32.10;73.30
569;DHT22;269;48.884;9.192;2022-07-21T12:37:51;32.40;73.20
569;DHT22;269;48.884;9.192;2022-07-21T12:40:19;32.90;72.30
569;DHT22;269;48.884;9.192;2022-07-21T12:42:47;33.30;71.60
569;DHT22;269;48.884;9.192;2022-07-21T12:45:15;33.60;70.60
569;DHT22;269;48.884;9.192;2022-07-21T12:48:07;33.50;69.30
569;DHT22;269;48.884;9.192;2022-07-21T12:50:34;33.40;70.70
569;DHT22;269;48.884;9.192;2022-07-21T12:53:05;33.50;69.70
569;DHT22;269;48.884;9.192;2022-07-21T12:55:32;33.80;69.40
569;DHT22;269;48.884;9.192;2022-07-21T12:57:59;34.20;66.80
569;DHT22;269;48.884;9.192;2022-07-21T13:00:26;34.40;67.30
569;DHT22;269;48.884;9.192;2022-07-21T13:02:56;34.80;65.40
569;DHT22;269;48.884;9.192;2022-07-21T13:05:25;35.10;64.40
569;DHT22;269;48.884;9.192;2022-07-21T13:07:53;35.20;64.90
569;DHT22;269;48.884;9.192;2022-07-21T13:10:20;35.80;62.80
569;DHT22;269;48.884;9.192;2022-07-21T13:12:47;36.20;63.40
569;DHT22;269;48.884;9.192;2022-07-21T13:15:16;37.20;63.00
569;DHT22;269;48.884;9.192;2022-07-21T13:17:43;38.00;58.80
569;DHT22;269;48.884;9.192;2022-07-21T13:20:10;38.40;58.30
569;DHT22;269;48.884;9.192;2022-07-21T13:22:39;38.90;57.20
569;DHT22;269;48.884;9.192;2022-07-21T13:25:07;39.60;55.20
569;DHT22;269;48.884;9.192;2022-07-21T13:27:36;40.60;54.10
569;DHT22;269;48.884;9.192;2022-07-21T13:30:04;42.00;52.50
569;DHT22;269;48.884;9.192;2022-07-21T13:32:32;43.40;49.30
569;DHT22;269;48.884;9.192;2022-07-21T13:34:59;44.60;47.20
569;DHT22;269;48.884;9.192;2022-07-21T13:37:27;45.40;45.40
569;DHT22;269;48.884;9.192;2022-07-21T13:39:55;45.00;43.60
569;DHT22;269;48.884;9.192;2022-07-21T13:42:22;45.20;43.70
569;DHT22;269;48.884;9.192;2022-07-21T13:44:49;45.80;42.60
569;DHT22;269;48.884;9.192;2022-07-21T13:47:16;46.80;42.00
569;DHT22;269;48.884;9.192;2022-07-21T13:49:43;48.00;40.00
569;DHT22;269;48.884;9.192;2022-07-21T13:52:11;47.70;38.30
569;DHT22;269;48.884;9.192;2022-07-21T13:54:38;47.50;38.10
569;DHT22;269;48.884;9.192;2022-07-21T13:57:06;46.60;37.50
569;DHT22;269;48.884;9.192;2022-07-21T13:59:34;46.50;38.20
569;DHT22;269;48.884;9.192;2022-07-21T14:02:01;47.30;38.00
569;DHT22;269;48.884;9.192;2022-07-21T14:04:27;47.40;36.70
569;DHT22;269;48.884;9.192;2022-07-21T14:06:55;46.30;37.30
569;DHT22;269;48.884;9.192;2022-07-21T14:09:22;46.20;37.40
569;DHT22;269;48.884;9.192;2022-07-21T14:11:49;45.40;37.40
569;DHT22;269;48.884;9.192;2022-07-21T14:14:17;45.70;37.20
569;DHT22;269;48.884;9.192;2022-07-21T14:16:48;45.00;38.50
569;DHT22;269;48.884;9.192;2022-07-21T14:19:15;43.50;38.50
569;DHT22;269;48.884;9.192;2022-07-21T14:21:43;41.40;40.80
569;DHT22;269;48.884;9.192;2022-07-21T14:24:10;40.30;41.80
569;DHT22;269;48.884;9.192;2022-07-21T14:26:55;41.00;41.50
569;DHT22;269;48.884;9.192;2022-07-21T14:29:23;41.80;41.50
569;DHT22;269;48.884;9.192;2022-07-21T14:31:50;42.40;40.30
569;DHT22;269;48.884;9.192;2022-07-21T14:34:18;43.10;39.90
569;DHT22;269;48.884;9.192;2022-07-21T14:36:44;43.10;40.10
569;DHT22;269;48.884;9.192;2022-07-21T14:39:12;43.20;39.90
569;DHT22;269;48.884;9.192;2022-07-21T14:41:40;43.70;39.30
569;DHT22;269;48.884;9.192;2022-07-21T14:44:07;43.60;39.60
569;DHT22;269;48.884;9.192;2022-07-21T14:46:35;44.00;38.90
569;DHT22;269;48.884;9.192;2022-07-21T14:49:02;43.60;39.30
569;DHT22;269;48.884;9.192;2022-07-21T14:51:29;43.80;39.70
569;DHT22;269;48.884;9.192;2022-07-21T14:53:57;42.70;39.40
569;DHT22;269;48.884;9.192;2022-07-21T14:56:24;42.70;40.20
569;DHT22;269;48.884;9.192;2022-07-21T14:58:51;42.40;39.70
569;DHT22;269;48.884;9.192;2022-07-21T15:01:18;41.60;40.20
569;DHT22;269;48.884;9.192;2022-07-21T15:03:46;39.90;42.00
569;DHT22;269;48.884;9.192;2022-07-21T15:06:13;39.50;43.70
569;DHT22;269;48.884;9.192;2022-07-21T15:08:40;40.20;42.80
569;DHT22;269;48.884;9.192;2022-07-21T15:12:04;40.10;42.40
569;DHT22;269;48.884;9.192;2022-07-21T15:14:31;39.20;43.40
569;DHT22;269;48.884;9.192;2022-07-21T15:18:21;39.60;43.80
569;DHT22;269;48.884;9.192;2022-07-21T15:20:48;41.30;41.50
569;DHT22;269;48.884;9.192;2022-07-21T15:25:01;41.50;41.30
569;DHT22;269;48.884;9.192;2022-07-21T15:27:29;42.00;40.00
569;DHT22;269;48.884;9.192;2022-07-21T15:30:55;41.40;39.90
569;DHT22;269;48.884;9.192;2022-07-21T15:33:22;40.10;42.00
569;DHT22;269;48.884;9.192;2022-07-21T15:35:49;39.10;42.40
569;DHT22;269;48.884;9.192;2022-07-21T15:38:19;37.60;43.70
569;DHT22;269;48.884;9.192;2022-07-21T15:40:46;36.50;45.10
569;DHT22;269;48.884;9.192;2022-07-21T15:43:13;35.50;46.30
569;DHT22;269;48.884;9.192;2022-07-21T15:46:34;34.60;47.20
569;DHT22;269;48.884;9.192;2022-07-21T15:49:01;33.40;49.10
569;DHT22;269;48.884;9.192;2022-07-21T15:51:31;32.90;49.50
569;DHT22;269;48.884;9.192;2022-07-21T15:53:58;33.20;50.20
569;DHT22;269;48.884;9.192;2022-07-21T15:57:30;33.60;49.30
569;DHT22;269;48.884;9.192;2022-07-21T15:59:57;34.90;49.00
569;DHT22;269;48.884;9.192;2022-07-21T16:02:24;34.90;47.70
569;DHT22;269;48.884;9.192;2022-07-21T16:04:51;34.10;48.70
569;DHT22;269;48.884;9.192;2022-07-21T16:07:18;34.50;49.60
569;DHT22;269;48.884;9.192;2022-07-21T16:14:23;31.70;53.60
569;DHT22;269;48.884;9.192;2022-07-21T16:16:50;30.50;55.30
569;DHT22;269;48.884;9.192;2022-07-21T16:19:17;29.80;56.90
569;DHT22;269;48.884;9.192;2022-07-21T16:21:45;29.40;58.10
569;DHT22;269;48.884;9.192;2022-07-21T16:24:11;29.00;59.70
569;DHT22;269;48.884;9.192;2022-07-21T16:28:31;28.70;60.60
569;DHT22;269;48.884;9.192;2022-07-21T16:31:40;28.70;62.00
569;DHT22;269;48.884;9.192;2022-07-21T16:35:55;28.60;61.70
569;DHT22;269;48.884;9.192;2022-07-21T16:38:22;28.50;62.60
569;DHT22;269;48.884;9.192;2022-07-21T16:40:48;28.40;62.40
569;DHT22;269;48.884;9.192;2022-07-21T16:43:15;28.40;62.80
569;DHT22;269;48.884;9.192;2022-07-21T16:45:42;28.30;62.70
569;DHT22;269;48.884;9.192;2022-07-21T16:48:09;28.40;62.80
569;DHT22;269;48.884;9.192;2022-07-21T16:57:15;28.10;63.20
569;DHT22;269;48.884;9.192;2022-07-21T16:59:42;28.20;63.50
569;DHT22;269;48.884;9.192;2022-07-21T17:02:09;28.20;63.60
569;DHT22;269;48.884;9.192;2022-07-21T17:04:36;28.20;63.80
569;DHT22;269;48.884;9.192;2022-07-21T17:07:03;28.10;63.50
569;DHT22;269;48.884;9.192;2022-07-21T17:11:03;28.10;63.80